Time;durP1;ratioP1;P1;durP2;ratioP2;P2;SDS_P1;SDS_P2;PMS_P1;PMS_P2;Temp;Humidity;BMP_temperature;BMP_pressure;BME280_temperature;BME280_humidity;BME280_pressure;Samples;Min_cycle;Max_cycle;Signal;HPM_P1;HPM_P2
2023/04/06 00:01:56;;;;;;;1.52;1.42;;;9.70;90.50;;;;;;5093732;28;20020;-73
2023/04/06 00:04:21;;;;;;;0.70;0.70;;;9.70;90.50;;;;;;5094472;28;20496;-73
2023/04/06 00:06:47;;;;;;;7.45;3.55;;;9.70;90.60;;;;;;5093602;28;20024;-73
2023/04/06 00:09:13;;;;;;;3.30;1.05;;;9.70;90.90;;;;;;5093641;28;20028;-73
2023/04/06 00:11:39;;;;;;;1.42;1.33;;;9.60;90.90;;;;;;5094863;28;20036;-74
2023/04/06 00:14:05;;;;;;;5.10;2.67;;;9.50;91.00;;;;;;5094687;28;20024;-73
2023/04/06 00:16:30;;;;;;;3.05;2.78;;;9.60;91.30;;;;;;5094654;28;20024;-74
2023/04/06 00:18:56;;;;;;;4.47;1.75;;;9.60;91.00;;;;;;5094257;28;20426;-74
2023/04/06 00:21:22;;;;;;;0.40;0.40;;;9.60;91.70;;;;;;5093332;28;20353;-73
2023/04/06 00:23:48;;;;;;;6.03;2.42;;;9.60;91.40;;;;;;5093364;28;20074;-73
2023/04/06 00:26:14;;;;;;;3.75;2.28;;;9.70;91.30;;;;;;5093086;28;20389;-73
2023/04/06 00:28:45;;;;;;;8.30;4.68;;;9.70;91.40;;;;;;5066069;28;20028;-73
2023/04/06 00:31:10;;;;;;;0.50;0.50;;;9.60;91.60;;;;;;5093073;28;20473;-73
2023/04/06 00:33:36;;;;;;;6.65;2.90;;;9.50;91.80;;;;;;5094011;28;20038;-74
2023/04/06 00:36:02;;;;;;;0.20;0.20;;;9.50;91.80;;;;;;5094186;28;20031;-73
2023/04/06 00:38:28;;;;;;;1.75;1.65;;;9.50;91.90;;;;;;5092166;28;20380;-73
2023/04/06 00:40:54;;;;;;;3.80;1.73;;;9.70;91.70;;;;;;5082729;28;20096;-73
2023/04/06 00:43:20;;;;;;;1.02;1.02;;;9.60;92.00;;;;;;5092415;28;20058;-73
2023/04/06 00:45:46;;;;;;;3.10;2.53;;;9.50;92.40;;;;;;5093892;28;20035;-73
2023/04/06 00:48:13;;;;;;;1.83;1.73;;;9.50;92.30;;;;;;5093706;28;20028;-73
2023/04/06 00:50:38;;;;;;;0.40;0.40;;;9.40;92.30;;;;;;5093959;28;20024;-73
2023/04/06 00:53:04;;;;;;;0.77;0.77;;;9.50;92.10;;;;;;5093939;28;20476;-73
2023/04/06 00:55:30;;;;;;;3.60;2.78;;;9.50;92.10;;;;;;5075863;28;20035;-73
2023/04/06 00:57:59;;;;;;;0.52;0.52;;;9.60;92.10;;;;;;5075697;28;20028;-73
2023/04/06 01:00:26;;;;;;;1.38;1.27;;;9.60;92.10;;;;;;5092512;28;20472;-74
2023/04/06 01:02:57;;;;;;;2.53;1.98;;;9.60;92.10;;;;;;5093282;28;20420;-74
2023/04/06 01:05:30;;;;;;;1.85;1.75;;;9.50;92.20;;;;;;5092443;28;20395;-73
2023/04/06 01:07:58;;;;;;;0.28;0.28;;;9.50;92.20;;;;;;5092255;28;20502;-73
2023/04/06 01:10:28;;;;;;;4.43;2.35;;;9.60;92.10;;;;;;5092388;28;20430;-73
2023/04/06 01:13:14;;;;;;;15.13;7.05;;;9.50;92.20;;;;;;5093300;28;20055;-73
2023/04/06 01:15:49;;;;;;;1.20;1.20;;;9.40;92.20;;;;;;5092318;28;20036;-73
2023/04/06 01:18:26;;;;;;;2.60;1.50;;;9.30;92.70;;;;;;5074545;28;20036;-73
2023/04/06 01:20:59;;;;;;;1.90;1.05;;;9.40;92.50;;;;;;5081148;28;20487;-73
2023/04/06 01:23:26;;;;;;;7.03;2.47;;;9.20;92.60;;;;;;5093472;28;20031;-73
2023/04/06 01:25:52;;;;;;;1.98;1.83;;;9.10;92.60;;;;;;5091931;28;20024;-73
2023/04/06 01:28:17;;;;;;;12.40;2.33;;;9.00;93.10;;;;;;5093753;28;20107;-73
2023/04/06 01:31:08;;;;;;;1.15;1.08;;;9.00;93.40;;;;;;5092668;28;20039;-73
2023/04/06 01:33:47;;;;;;;0.45;0.40;;;9.10;93.20;;;;;;5091689;28;20043;-73
2023/04/06 01:36:16;;;;;;;2.45;2.25;;;9.20;93.40;;;;;;5091791;28;20487;-73
2023/04/06 01:38:45;;;;;;;2.28;2.08;;;9.20;92.90;;;;;;5091512;28;20036;-73
2023/04/06 01:41:12;;;;;;;0.40;0.40;;;9.00;93.60;;;;;;5091669;28;20484;-72
2023/04/06 01:43:54;;;;;;;3.17;1.67;;;9.10;93.60;;;;;;5091724;28;20024;-73
2023/04/06 01:46:22;;;;;;;;;;;9.00;93.70;;;;;;5091809;28;20020;-73
2023/04/06 01:48:49;;;;;;;4.05;2.38;;;8.80;93.80;;;;;;5091654;28;20262;-73
2023/04/06 01:51:26;;;;;;;4.75;2.38;;;8.90;94.00;;;;;;5076210;28;20034;-73
2023/04/06 01:53:56;;;;;;;5.03;1.58;;;8.80;93.90;;;;;;5091068;28;20024;-73
2023/04/06 01:56:31;;;;;;;2.75;2.47;;;8.70;93.70;;;;;;5065428;28;20091;-73
2023/04/06 01:59:04;;;;;;;0.43;0.43;;;8.90;94.10;;;;;;5091812;28;20114;-73
2023/04/06 02:01:36;;;;;;;6.93;2.40;;;8.90;94.10;;;;;;5091322;28;20071;-73
2023/04/06 02:04:02;;;;;;;0.65;0.65;;;8.90;93.90;;;;;;5091717;28;20028;-74
2023/04/06 02:06:28;;;;;;;10.57;4.75;;;9.00;93.80;;;;;;5091513;28;20024;-74
2023/04/06 02:08:54;;;;;;;3.85;2.67;;;9.00;93.50;;;;;;5091601;28;20386;-73
2023/04/06 02:11:20;;;;;;;2.20;0.95;;;8.90;93.90;;;;;;5091254;28;20476;-74
2023/04/06 02:13:49;;;;;;;3.60;2.42;;;8.80;93.90;;;;;;5091483;28;20032;-73
2023/04/06 02:16:16;;;;;;;3.17;1.50;;;8.70;94.30;;;;;;5091078;28;20020;-73
2023/04/06 02:18:44;;;;;;;3.80;2.85;;;8.60;94.60;;;;;;5091486;28;20032;-74
2023/04/06 02:21:11;;;;;;;1.27;1.23;;;8.50;94.90;;;;;;5091445;28;20028;-73
2023/04/06 02:23:37;;;;;;;1.50;1.25;;;8.50;94.90;;;;;;5091438;28;20032;-73
2023/04/06 02:26:03;;;;;;;0.82;0.82;;;8.50;94.90;;;;;;5091257;28;20031;-73
2023/04/06 02:28:28;;;;;;;3.17;1.80;;;8.50;94.70;;;;;;5091007;28;20481;-73
2023/04/06 02:30:55;;;;;;;9.52;4.35;;;8.40;94.70;;;;;;5091281;28;20086;-74
2023/04/06 02:33:25;;;;;;;1.95;1.73;;;8.50;94.80;;;;;;5091245;28;21804;-73
2023/04/06 02:35:51;;;;;;;12.65;2.65;;;8.30;95.00;;;;;;5091210;28;20089;-73
2023/04/06 02:38:17;;;;;;;10.38;3.53;;;8.50;95.00;;;;;;5082443;28;20044;-74
2023/04/06 02:40:44;;;;;;;7.43;2.28;;;8.40;94.80;;;;;;5092508;28;20024;-73
2023/04/06 02:43:20;;;;;;;8.45;0.80;;;8.40;94.80;;;;;;5090959;28;20043;-73
2023/04/06 02:45:47;;;;;;;3.60;2.28;;;8.40;95.10;;;;;;5091430;28;20024;-74
2023/04/06 02:48:14;;;;;;;5.93;2.33;;;8.30;95.30;;;;;;5092225;28;20052;-73
2023/04/06 02:50:40;;;;;;;5.57;2.88;;;8.20;95.10;;;;;;5090988;28;20027;-73
2023/04/06 02:53:07;;;;;;;1.60;1.08;;;8.20;95.10;;;;;;5091073;28;20372;-73
2023/04/06 02:55:36;;;;;;;0.57;0.47;;;8.20;95.40;;;;;;5091431;28;20052;-73
2023/04/06 02:58:02;;;;;;;14.02;3.55;;;8.20;95.40;;;;;;5090501;28;20392;-73
2023/04/06 03:00:37;;;;;;;3.13;1.73;;;8.20;95.30;;;;;;5075494;28;20111;-73
2023/04/06 03:03:03;;;;;;;5.88;4.28;;;8.10;96.00;;;;;;5092129;28;20404;-73
2023/04/06 03:05:29;;;;;;;3.80;2.50;;;8.10;95.70;;;;;;5093180;28;20028;-73
2023/04/06 03:07:55;;;;;;;5.22;1.33;;;8.10;95.70;;;;;;5094233;28;20086;-73
2023/04/06 03:10:30;;;;;;;4.40;3.05;;;8.10;96.00;;;;;;5094959;28;20031;-74
2023/04/06 03:12:55;;;;;;;6.22;2.28;;;8.20;96.00;;;;;;5094216;28;20495;-73
2023/04/06 03:15:24;;;;;;;8.32;3.92;;;8.30;95.50;;;;;;5078270;28;20115;-73
2023/04/06 03:17:56;;;;;;;1.85;1.75;;;8.30;95.50;;;;;;5094295;28;20078;-73
2023/04/06 03:20:55;;;;;;;6.65;6.15;;;8.20;95.80;;;;;;5091767;28;20032;-73
2023/04/06 03:23:23;;;;;;;2.42;1.50;;;8.20;96.00;;;;;;5077895;28;20030;-73
2023/04/06 03:25:54;;;;;;;2.15;0.43;;;8.20;95.90;;;;;;5094556;28;20024;-73
2023/04/06 03:28:20;;;;;;;11.18;0.73;;;8.20;95.90;;;;;;5095234;28;20036;-73
2023/04/06 03:30:51;;;;;;;0.63;0.60;;;8.20;96.10;;;;;;5094339;28;20020;-74
2023/04/06 03:33:26;;;;;;;1.85;1.48;;;8.40;95.90;;;;;;5094193;28;20036;-74
2023/04/06 03:35:54;;;;;;;0.65;0.65;;;8.40;95.80;;;;;;5094228;28;20060;-74
2023/04/06 03:38:22;;;;;;;4.65;2.58;;;8.30;96.00;;;;;;5093937;28;20040;-73
2023/04/06 03:40:48;;;;;;;5.55;2.00;;;8.30;96.50;;;;;;5094054;28;20031;-73
2023/04/06 03:43:14;;;;;;;3.50;1.98;;;8.40;96.40;;;;;;5094999;28;20035;-74
2023/04/06 03:45:40;;;;;;;1.40;1.33;;;8.40;96.20;;;;;;5093963;28;20031;-73
2023/04/06 03:48:06;;;;;;;5.15;1.40;;;8.30;96.30;;;;;;5093794;28;20391;-73
2023/04/06 03:50:35;;;;;;;1.95;1.85;;;8.30;96.50;;;;;;5093876;28;20028;-73
2023/04/06 03:53:02;;;;;;;15.15;2.78;;;8.10;96.80;;;;;;5093920;28;20020;-73
2023/04/06 03:55:29;;;;;;;1.25;1.05;;;8.00;97.00;;;;;;5094886;28;20039;-73
2023/04/06 03:57:56;;;;;;;0.20;0.20;;;8.00;97.20;;;;;;5093665;28;20048;-74
2023/04/06 04:00:25;;;;;;;1.50;1.30;;;8.10;97.20;;;;;;5093887;28;20024;-74
2023/04/06 04:02:50;;;;;;;8.20;4.35;;;8.10;97.20;;;;;;5093923;28;20482;-73
2023/04/06 04:05:16;;;;;;;2.75;1.65;;;8.10;97.30;;;;;;5093523;28;20020;-73
2023/04/06 04:07:42;;;;;;;5.75;1.90;;;7.90;97.60;;;;;;5093374;28;20420;-73
2023/04/06 04:10:10;;;;;;;0.30;0.30;;;8.00;97.40;;;;;;5085800;28;20032;-73
2023/04/06 04:12:36;;;;;;;1.70;1.65;;;8.00;97.70;;;;;;5087083;28;20066;-73
2023/04/06 04:15:02;;;;;;;0.45;0.45;;;8.00;97.50;;;;;;5094571;28;20063;-73
2023/04/06 04:17:28;;;;;;;2.50;1.85;;;8.10;97.70;;;;;;5092704;28;20032;-72
2023/04/06 04:19:54;;;;;;;6.57;4.72;;;8.10;97.40;;;;;;5094401;28;20535;-73
2023/04/06 04:22:20;;;;;;;3.65;1.10;;;8.00;97.30;;;;;;5093330;28;20395;-73
2023/04/06 04:24:46;;;;;;;1.58;0.93;;;7.90;98.10;;;;;;5092898;28;20028;-73
2023/04/06 04:27:12;;;;;;;0.93;0.93;;;8.00;97.90;;;;;;5093382;28;20035;-74
2023/04/06 04:29:40;;;;;;;0.50;0.50;;;8.10;97.90;;;;;;5093282;28;20024;-73
2023/04/06 04:32:08;;;;;;;0.75;0.75;;;8.00;98.30;;;;;;5065600;28;20097;-73
2023/04/06 04:34:35;;;;;;;1.25;1.20;;;8.00;98.20;;;;;;5093207;28;20027;-73
2023/04/06 04:37:03;;;;;;;2.47;1.33;;;8.10;98.40;;;;;;5092906;28;20090;-73
2023/04/06 04:39:44;;;;;;;0.30;0.30;;;8.20;98.10;;;;;;5077846;28;20525;-73
2023/04/06 04:42:10;;;;;;;0.90;0.88;;;8.30;98.40;;;;;;5092774;28;20028;-73
2023/04/06 04:44:42;;;;;;;2.92;1.77;;;8.40;98.10;;;;;;5092940;28;20533;-73
2023/04/06 04:47:09;;;;;;;0.98;0.90;;;8.40;98.00;;;;;;5092733;28;20035;-73
2023/04/06 04:49:43;;;;;;;0.60;0.60;;;8.40;98.20;;;;;;5092627;28;20551;-73
2023/04/06 04:52:10;;;;;;;0.50;0.50;;;8.50;98.20;;;;;;5092727;28;20054;-73
2023/04/06 04:54:49;;;;;;;0.68;0.68;;;8.70;98.20;;;;;;5092459;28;20024;-73
2023/04/06 04:57:22;;;;;;;7.00;2.65;;;8.70;97.70;;;;;;5076828;28;20036;-74
2023/04/06 04:59:50;;;;;;;4.40;2.65;;;8.70;97.80;;;;;;5092665;28;20077;-73
2023/04/06 05:02:18;;;;;;;1.17;1.13;;;8.30;98.20;;;;;;5092486;28;20514;-73
2023/04/06 05:04:53;;;;;;;1.30;1.20;;;8.30;98.70;;;;;;5092501;28;20048;-73
2023/04/06 05:07:23;;;;;;;1.75;0.95;;;8.10;99.30;;;;;;5092312;28;20028;-74
2023/04/06 05:09:51;;;;;;;0.10;0.10;;;8.30;99.90;;;;;;5091349;28;20027;-73
2023/04/06 05:12:19;;;;;;;0.82;0.82;;;8.50;99.40;;;;;;5091705;28;20077;-73
2023/04/06 05:14:59;;;;;;;0.45;0.45;;;8.70;98.90;;;;;;5091958;28;20031;-74
2023/04/06 05:17:25;;;;;;;1.05;1.00;;;8.60;99.30;;;;;;5092159;28;20046;-73
2023/04/06 05:19:52;;;;;;;0.25;0.25;;;8.70;99.70;;;;;;5091607;28;20016;-73
2023/04/06 05:22:22;;;;;;;2.35;1.77;;;8.80;99.80;;;;;;5091395;28;20028;-73
2023/04/06 05:24:57;;;;;;;1.75;1.65;;;9.10;98.80;;;;;;5091925;28;20392;-73
2023/04/06 05:27:23;;;;;;;8.25;1.92;;;9.10;99.20;;;;;;5092170;28;20031;-73
2023/04/06 05:29:49;;;;;;;1.50;1.40;;;9.00;99.10;;;;;;5079105;28;20021;-74
2023/04/06 05:32:16;;;;;;;0.17;0.17;;;8.70;99.60;;;;;;5091812;28;20483;-73
2023/04/06 05:34:43;;;;;;;0.88;0.68;;;8.70;99.90;;;;;;5075370;28;20016;-75
2023/04/06 05:37:09;;;;;;;1.45;0.95;;;8.90;99.90;;;;;;5091314;28;20032;-73
2023/04/06 05:39:35;;;;;;;0.45;0.45;;;9.00;99.90;;;;;;5091848;28;20032;-73
2023/04/06 05:42:06;;;;;;;0.73;0.73;;;8.90;99.90;;;;;;5074798;28;20077;-74
2023/04/06 05:44:50;;;;;;;1.10;1.00;;;9.00;99.90;;;;;;5092073;28;20205;-73
2023/04/06 05:47:16;;;;;;;2.67;1.10;;;8.80;99.90;;;;;;5090613;28;20483;-74
2023/04/06 05:49:45;;;;;;;0.50;0.50;;;8.80;99.90;;;;;;5064500;28;20020;-73
2023/04/06 05:52:19;;;;;;;1.23;1.15;;;8.70;99.90;;;;;;5074838;28;20749;-73
2023/04/06 05:54:47;;;;;;;2.05;1.45;;;8.90;99.90;;;;;;5071006;28;20020;-73
2023/04/06 05:57:13;;;;;;;2.53;1.38;;;8.80;99.90;;;;;;5073127;28;20032;-73
2023/04/06 05:59:39;;;;;;;7.80;4.72;;;8.90;99.90;;;;;;5072170;28;20471;-73
2023/04/06 06:02:05;;;;;;;11.55;7.25;;;8.80;99.90;;;;;;5076968;28;20454;-73
2023/04/06 06:04:35;;;;;;;9.93;3.47;;;8.60;99.90;;;;;;5074656;28;20476;-73
2023/04/06 06:07:02;;;;;;;1.98;1.35;;;8.50;99.90;;;;;;5070252;28;20054;-73
2023/04/06 06:09:36;;;;;;;2.78;2.05;;;8.40;99.90;;;;;;5067853;28;20059;-74
2023/04/06 06:12:15;;;;;;;14.82;4.95;;;8.30;99.90;;;;;;5069404;28;20768;-74
2023/04/06 06:14:41;;;;;;;6.38;4.18;;;8.40;99.90;;;;;;5079838;28;20174;-73
2023/04/06 06:17:07;;;;;;;15.38;7.68;;;8.50;99.90;;;;;;5060504;28;20506;-74
2023/04/06 06:19:34;;;;;;;23.35;10.75;;;8.30;99.90;;;;;;5072841;28;20090;-74
2023/04/06 06:22:03;;;;;;;0.63;0.63;;;8.20;99.90;;;;;;5072696;28;20025;-73
2023/04/06 06:24:31;;;;;;;3.50;3.08;;;8.20;99.90;;;;;;5070437;28;20025;-73
2023/04/06 06:26:58;;;;;;;9.60;5.60;;;8.40;99.90;;;;;;5076137;28;20021;-73
2023/04/06 06:29:26;;;;;;;8.52;3.67;;;8.30;99.90;;;;;;5075207;28;20039;-73
2023/04/06 06:31:52;;;;;;;3.30;1.75;;;8.40;99.90;;;;;;5077974;28;20013;-73
2023/04/06 06:34:18;;;;;;;4.78;3.53;;;8.30;99.90;;;;;;5072360;28;20487;-73
2023/04/06 06:36:44;;;;;;;9.25;3.05;;;8.40;99.90;;;;;;5075270;28;20047;-72
2023/04/06 06:39:12;;;;;;;8.52;2.08;;;8.30;99.90;;;;;;5073165;28;20506;-73
2023/04/06 06:41:38;;;;;;;1.30;1.20;;;8.30;99.90;;;;;;5080959;28;20032;-73
2023/04/06 06:44:05;;;;;;;10.88;5.63;;;8.40;99.90;;;;;;5077810;28;20354;-73
2023/04/06 06:46:31;;;;;;;1.55;1.35;;;8.50;99.90;;;;;;5075055;28;20134;-73
2023/04/06 06:48:58;;;;;;;11.55;5.97;;;8.50;99.90;;;;;;5048745;28;20058;-72
2023/04/06 06:51:24;;;;;;;5.22;3.25;;;8.50;99.90;;;;;;5079854;28;20027;-71
2023/04/06 06:53:51;;;;;;;1.27;1.02;;;8.30;99.90;;;;;;5089593;28;20028;-72
2023/04/06 06:56:17;;;;;;;8.20;3.10;;;8.10;99.90;;;;;;5082230;28;20042;-72
2023/04/06 06:58:43;;;;;;;4.60;3.10;;;8.10;99.90;;;;;;5078391;28;20029;-72
2023/04/06 07:01:09;;;;;;;8.90;4.18;;;8.30;99.90;;;;;;5079017;28;20024;-72
2023/04/06 07:03:35;;;;;;;7.78;1.85;;;8.10;99.90;;;;;;5085018;28;20103;-72
2023/04/06 07:06:01;;;;;;;1.13;0.90;;;8.00;99.90;;;;;;5064568;28;20400;-72
2023/04/06 07:08:27;;;;;;;7.32;2.13;;;8.00;99.90;;;;;;5066358;28;20024;-72
2023/04/06 07:10:55;;;;;;;5.13;3.28;;;8.20;99.90;;;;;;5061260;28;20056;-72
2023/04/06 07:13:22;;;;;;;13.65;3.65;;;8.20;99.90;;;;;;5075014;28;20039;-72
2023/04/06 07:15:50;;;;;;;3.58;2.05;;;8.30;99.90;;;;;;5068457;28;20028;-74
2023/04/06 07:18:17;;;;;;;8.10;2.35;;;8.40;99.90;;;;;;5079964;28;20039;-73
2023/04/06 07:20:43;;;;;;;4.07;1.75;;;8.50;99.90;;;;;;5063374;28;20025;-73
2023/04/06 07:23:09;;;;;;;3.30;2.20;;;8.50;99.90;;;;;;5068587;28;20392;-72
2023/04/06 07:25:35;;;;;;;4.72;3.05;;;8.40;99.90;;;;;;5073797;28;20059;-72
2023/04/06 07:28:05;;;;;;;3.65;2.60;;;8.40;99.90;;;;;;5073635;28;20021;-72
2023/04/06 07:30:32;;;;;;;10.25;5.93;;;8.30;99.90;;;;;;5073929;28;20400;-71
2023/04/06 07:32:59;;;;;;;12.70;2.70;;;8.30;99.90;;;;;;5074066;28;20063;-71
2023/04/06 07:35:27;;;;;;;7.07;2.17;;;8.20;99.90;;;;;;5073538;28;20023;-71
2023/04/06 07:37:54;;;;;;;5.80;3.22;;;8.30;99.90;;;;;;5072840;28;20032;-71
2023/04/06 07:40:20;;;;;;;5.72;3.80;;;8.20;99.90;;;;;;5072638;28;20173;-72
2023/04/06 07:42:47;;;;;;;9.77;4.32;;;8.20;99.90;;;;;;5073163;28;20032;-72
2023/04/06 07:45:13;;;;;;;6.78;3.42;;;8.20;99.90;;;;;;5073434;28;20017;-72
2023/04/06 07:47:39;;;;;;;2.58;1.65;;;8.20;99.90;;;;;;5078907;28;20035;-71
2023/04/06 07:50:05;;;;;;;3.47;0.88;;;8.40;99.90;;;;;;5093903;28;20036;-72
2023/04/06 07:52:32;;;;;;;4.75;2.40;;;8.40;99.90;;;;;;5092643;28;20035;-71
2023/04/06 07:54:59;;;;;;;12.27;4.20;;;8.50;99.90;;;;;;5076902;28;20044;-72
2023/04/06 07:57:25;;;;;;;6.97;3.63;;;8.60;99.90;;;;;;5094773;28;20102;-72
2023/04/06 07:59:51;;;;;;;3.78;2.33;;;8.50;99.90;;;;;;5094927;28;20103;-71
2023/04/06 08:02:17;;;;;;;1.88;1.33;;;8.40;99.90;;;;;;5094765;28;20365;-71
2023/04/06 08:04:43;;;;;;;10.45;3.17;;;8.60;99.90;;;;;;5094568;28;20062;-71
2023/04/06 08:07:09;;;;;;;5.28;2.78;;;8.50;99.90;;;;;;5095061;28;20529;-71
2023/04/06 08:09:35;;;;;;;14.85;5.10;;;8.50;99.90;;;;;;5095107;28;20114;-74
2023/04/06 08:12:01;;;;;;;4.55;2.92;;;8.40;99.90;;;;;;5073849;28;20517;-72
2023/04/06 08:14:27;;;;;;;9.60;5.10;;;8.30;99.90;;;;;;5094441;28;20031;-72
2023/04/06 08:16:53;;;;;;;5.00;2.65;;;8.20;99.90;;;;;;5094419;28;20089;-71
2023/04/06 08:19:19;;;;;;;9.80;4.13;;;8.20;99.90;;;;;;5094809;28;20028;-73
2023/04/06 08:21:47;;;;;;;6.88;3.70;;;8.30;99.90;;;;;;5094596;28;20024;-73
2023/04/06 08:24:14;;;;;;;6.60;2.78;;;8.50;99.90;;;;;;5094715;28;20472;-73
2023/04/06 08:26:40;;;;;;;3.20;2.05;;;8.50;99.90;;;;;;5094386;28;20032;-73
2023/04/06 08:29:09;;;;;;;2.17;1.95;;;8.40;99.90;;;;;;5094644;28;20028;-73
2023/04/06 08:31:35;;;;;;;3.65;2.50;;;8.30;99.90;;;;;;5093897;28;20118;-73
2023/04/06 08:34:03;;;;;;;6.28;4.20;;;8.30;99.90;;;;;;5094422;28;20468;-73
2023/04/06 08:36:29;;;;;;;7.40;3.78;;;8.20;99.90;;;;;;5094207;28;20081;-73
2023/04/06 08:38:55;;;;;;;3.80;2.70;;;8.40;99.90;;;;;;5094230;28;20036;-73
2023/04/06 08:41:21;;;;;;;8.63;3.88;;;8.30;99.90;;;;;;5094149;28;20039;-73
2023/04/06 08:43:57;;;;;;;1.85;1.00;;;8.30;99.90;;;;;;5094173;28;20031;-73
2023/04/06 08:46:29;;;;;;;6.38;3.15;;;8.40;99.90;;;;;;5093703;28;20471;-73
2023/04/06 08:49:02;;;;;;;10.27;2.83;;;8.30;99.90;;;;;;5093896;28;20388;-73
2023/04/06 08:51:30;;;;;;;8.15;3.72;;;8.20;99.90;;;;;;5093971;28;20020;-73
2023/04/06 08:53:58;;;;;;;5.15;2.15;;;8.40;99.90;;;;;;5094107;28;20028;-73
2023/04/06 08:56:25;;;;;;;4.82;1.73;;;8.30;99.90;;;;;;5093721;28;20065;-73
2023/04/06 08:58:52;;;;;;;3.50;2.28;;;8.40;99.90;;;;;;5093705;28;20434;-73
2023/04/06 09:01:21;;;;;;;3.78;2.63;;;8.40;99.90;;;;;;5092193;28;20086;-73
2023/04/06 09:03:49;;;;;;;3.60;2.08;;;8.40;99.90;;;;;;5093749;28;20024;-73
2023/04/06 09:06:15;;;;;;;5.43;2.72;;;8.60;99.90;;;;;;5093278;28;20020;-72
2023/04/06 09:08:41;;;;;;;4.22;2.67;;;8.50;99.90;;;;;;5092663;28;20493;-73
2023/04/06 09:11:08;;;;;;;2.53;1.70;;;8.60;99.90;;;;;;5092355;28;20020;-73
2023/04/06 09:13:48;;;;;;;4.35;2.58;;;8.50;99.90;;;;;;5093630;28;20388;-73
2023/04/06 09:16:15;;;;;;;3.20;2.63;;;8.50;99.90;;;;;;5092593;28;20032;-72
2023/04/06 09:18:41;;;;;;;4.28;3.28;;;8.50;99.90;;;;;;5093513;28;20032;-72
2023/04/06 09:21:08;;;;;;;4.43;2.00;;;8.30;99.90;;;;;;5093465;28;20476;-73
2023/04/06 09:23:34;;;;;;;4.63;3.00;;;8.50;99.90;;;;;;5092164;28;20495;-73
2023/04/06 09:26:15;;;;;;;3.22;2.30;;;8.40;99.90;;;;;;5092155;28;20024;-73
2023/04/06 09:28:51;;;;;;;7.03;2.22;;;8.40;99.90;;;;;;5093049;28;20059;-73
2023/04/06 09:31:32;;;;;;;1.38;1.27;;;8.40;99.90;;;;;;5093267;28;20016;-73
2023/04/06 09:34:00;;;;;;;1.27;1.20;;;8.40;99.90;;;;;;5093538;28;20024;-72
2023/04/06 09:36:33;;;;;;;7.45;4.18;;;8.40;99.90;;;;;;5093102;28;20101;-72
2023/04/06 09:39:03;;;;;;;3.08;2.53;;;8.50;99.90;;;;;;5093363;28;20081;-73
2023/04/06 09:41:34;;;;;;;7.25;3.53;;;8.50;99.90;;;;;;5091709;28;20028;-72
2023/04/06 09:44:10;;;;;;;7.25;1.90;;;8.50;99.90;;;;;;5092838;28;20024;-72
2023/04/06 09:46:43;;;;;;;2.80;1.98;;;8.40;99.90;;;;;;5092978;28;20036;-72
2023/04/06 09:49:10;;;;;;;2.38;2.17;;;8.50;99.90;;;;;;5092963;28;20487;-73
2023/04/06 09:51:43;;;;;;;5.93;3.58;;;8.60;99.90;;;;;;5091764;28;20024;-72
2023/04/06 09:54:11;;;;;;;1.48;1.38;;;8.50;99.90;;;;;;5091637;28;20392;-72
2023/04/06 09:56:46;;;;;;;4.75;3.58;;;8.60;99.90;;;;;;5092963;28;20040;-72
2023/04/06 09:59:19;;;;;;;2.90;1.95;;;8.60;99.90;;;;;;5091272;28;20532;-72
2023/04/06 10:01:48;;;;;;;9.35;3.90;;;8.80;99.90;;;;;;5092801;28;20039;-72
2023/04/06 10:04:49;;;;;;;2.65;1.83;;;8.80;99.90;;;;;;5092883;28;20039;-73
2023/04/06 10:07:16;;;;;;;3.70;1.90;;;8.80;99.90;;;;;;5091458;28;20400;-72
2023/04/06 10:09:46;;;;;;;5.20;2.78;;;8.90;99.90;;;;;;5092579;28;20029;-73
2023/04/06 10:12:12;;;;;;;2.47;1.55;;;8.70;99.90;;;;;;5092714;28;20024;-72
2023/04/06 10:14:40;;;;;;;11.50;3.85;;;8.70;99.90;;;;;;5091666;28;20070;-72
2023/04/06 10:17:07;;;;;;;11.93;2.67;;;8.70;99.90;;;;;;5091344;28;20043;-72
2023/04/06 10:19:39;;;;;;;12.07;3.95;;;8.60;99.90;;;;;;5092527;28;20495;-72
2023/04/06 10:22:06;;;;;;;7.40;4.03;;;8.60;99.90;;;;;;5092480;28;20058;-72
2023/04/06 10:24:32;;;;;;;6.45;2.55;;;8.60;99.90;;;;;;5091339;28;20118;-72
2023/04/06 10:27:06;;;;;;;5.72;2.35;;;8.70;99.90;;;;;;5091701;28;20132;-72
2023/04/06 10:29:49;;;;;;;10.13;3.17;;;8.60;99.90;;;;;;5092445;28;20036;-72
2023/04/06 10:32:15;;;;;;;7.18;4.30;;;8.50;99.90;;;;;;5092553;28;20081;-72
2023/04/06 10:34:41;;;;;;;9.52;4.40;;;8.60;99.90;;;;;;5091250;28;20119;-73
2023/04/06 10:37:14;;;;;;;0.75;0.45;;;8.60;99.90;;;;;;5092218;28;20017;-72
2023/04/06 10:39:54;;;;;;;6.97;3.78;;;8.70;99.90;;;;;;5090790;28;20043;-72
2023/04/06 10:42:25;;;;;;;6.75;2.63;;;8.60;99.90;;;;;;5092332;28;20032;-73
2023/04/06 10:44:50;;;;;;;15.70;3.58;;;8.60;99.90;;;;;;5092499;28;20499;-72
2023/04/06 10:47:20;;;;;;;5.47;3.97;;;8.60;99.90;;;;;;5090589;28;20012;-72
2023/04/06 10:49:46;;;;;;;4.35;3.10;;;8.50;99.90;;;;;;5092427;28;20082;-72
2023/04/06 10:52:12;;;;;;;8.40;4.95;;;8.60;99.90;;;;;;5091188;28;20032;-72
2023/04/06 10:54:43;;;;;;;2.28;1.63;;;8.40;99.90;;;;;;5090699;28;20054;-72
2023/04/06 10:57:09;;;;;;;2.90;2.13;;;8.50;99.90;;;;;;5090866;28;20476;-73
2023/04/06 10:59:35;;;;;;;4.68;3.42;;;8.60;99.90;;;;;;5091949;28;20095;-73
2023/04/06 11:02:01;;;;;;;5.18;3.08;;;8.50;99.90;;;;;;5091045;28;20111;-72
2023/04/06 11:04:27;;;;;;;6.03;4.00;;;8.60;99.90;;;;;;5092030;28;20112;-72
2023/04/06 11:06:54;;;;;;;7.25;4.10;;;8.60;99.90;;;;;;5091968;28;20543;-72
2023/04/06 11:09:28;;;;;;;5.60;3.28;;;8.70;99.90;;;;;;5092416;28;20103;-73
2023/04/06 11:11:55;;;;;;;6.38;3.65;;;8.50;99.90;;;;;;5090841;28;20085;-72
2023/04/06 11:14:20;;;;;;;9.77;2.78;;;8.50;99.90;;;;;;5092260;28;20028;-72
2023/04/06 11:16:51;;;;;;;4.82;4.03;;;8.50;99.90;;;;;;5091774;28;20081;-72
2023/04/06 11:19:17;;;;;;;10.77;3.88;;;8.60;99.90;;;;;;5090842;28;20549;-72
2023/04/06 11:21:47;;;;;;;5.95;2.42;;;8.60;99.90;;;;;;5092054;28;20045;-72
2023/04/06 11:24:20;;;;;;;5.60;3.33;;;8.70;99.90;;;;;;5090761;28;20055;-72
2023/04/06 11:26:51;;;;;;;8.52;4.65;;;8.60;99.90;;;;;;5092717;28;20163;-72
2023/04/06 11:29:19;;;;;;;5.07;3.10;;;8.60;99.90;;;;;;5095623;28;20374;-73
2023/04/06 11:31:48;;;;;;;1.70;1.38;;;8.60;99.90;;;;;;5095190;28;20028;-73
2023/04/06 11:34:22;;;;;;;0.73;0.73;;;8.60;99.90;;;;;;5095371;28;20078;-72
2023/04/06 11:36:53;;;;;;;2.72;1.77;;;8.70;99.90;;;;;;5095407;28;20020;-72
2023/04/06 11:39:21;;;;;;;8.05;3.67;;;8.80;99.90;;;;;;5095240;28;20048;-72
2023/04/06 11:41:51;;;;;;;5.43;3.67;;;8.80;99.90;;;;;;5094963;28;20376;-73
2023/04/06 11:44:39;;;;;;;1.50;0.90;;;8.70;99.90;;;;;;5087578;28;20115;-73
2023/04/06 11:47:06;;;;;;;7.72;4.10;;;8.80;99.90;;;;;;5093015;28;20028;-74
2023/04/06 11:49:33;;;;;;;2.70;2.00;;;8.80;99.90;;;;;;5095354;28;20107;-73
2023/04/06 11:52:00;;;;;;;16.33;4.70;;;8.90;99.90;;;;;;5095451;28;20593;-73
2023/04/06 11:54:37;;;;;;;10.63;5.28;;;8.90;99.90;;;;;;5080483;28;20102;-72
2023/04/06 11:57:04;;;;;;;7.20;3.72;;;9.00;99.90;;;;;;5095197;28;20047;-72
2023/04/06 11:59:33;;;;;;;7.15;2.58;;;8.90;99.90;;;;;;5094848;28;20263;-72
2023/04/06 12:01:59;;;;;;;10.13;4.22;;;9.00;99.90;;;;;;5094870;28;20028;-73
2023/04/06 12:04:25;;;;;;;9.52;5.57;;;9.00;99.90;;;;;;5094657;28;20029;-73
2023/04/06 12:06:51;;;;;;;11.70;5.63;;;9.00;99.90;;;;;;5087801;28;20038;-71
2023/04/06 12:09:20;;;;;;;11.65;5.10;;;8.90;99.90;;;;;;5059413;28;20029;-73
2023/04/06 12:11:46;;;;;;;4.53;2.88;;;9.10;99.90;;;;;;5074851;28;20063;-74
2023/04/06 12:14:12;;;;;;;6.32;3.38;;;9.00;99.90;;;;;;5074841;28;20020;-72
2023/04/06 12:16:39;;;;;;;8.30;3.35;;;9.00;99.90;;;;;;5073107;28;20472;-72
2023/04/06 12:19:05;;;;;;;10.23;5.68;;;9.00;99.90;;;;;;5072534;28;20303;-72
2023/04/06 12:21:31;;;;;;;8.18;4.25;;;9.10;99.90;;;;;;5074715;28;20029;-72
2023/04/06 12:23:58;;;;;;;3.33;1.40;;;9.10;99.90;;;;;;5071921;28;20035;-72
2023/04/06 12:26:24;;;;;;;3.42;2.42;;;9.20;99.90;;;;;;5073319;28;20074;-72
2023/04/06 12:28:50;;;;;;;11.50;6.53;;;9.10;99.90;;;;;;5073538;28;20051;-71
2023/04/06 12:31:21;;;;;;;10.70;7.07;;;9.00;99.90;;;;;;5073345;28;20099;-73
2023/04/06 12:33:48;;;;;;;15.40;5.35;;;8.90;99.90;;;;;;5072353;28;20024;-72
2023/04/06 12:36:18;;;;;;;7.80;3.85;;;9.00;99.90;;;;;;5073613;28;20020;-72
2023/04/06 12:38:48;;;;;;;10.30;5.05;;;9.00;99.90;;;;;;5072896;28;20045;-72
2023/04/06 12:41:14;;;;;;;3.20;2.00;;;9.00;99.90;;;;;;5074093;28;20021;-72
2023/04/06 12:43:42;;;;;;;4.78;3.22;;;9.10;99.90;;;;;;5072740;28;20519;-73
2023/04/06 12:46:08;;;;;;;2.72;0.98;;;9.10;99.90;;;;;;5073632;28;20033;-72
2023/04/06 12:48:35;;;;;;;0.90;0.90;;;9.10;99.90;;;;;;5085529;28;20032;-72
2023/04/06 12:51:07;;;;;;;11.25;7.15;;;9.20;99.90;;;;;;5093589;28;20040;-72
2023/04/06 12:53:34;;;;;;;3.05;2.35;;;9.10;99.90;;;;;;5093983;28;20480;-72
2023/04/06 12:56:02;;;;;;;1.77;1.52;;;9.10;99.90;;;;;;5085208;28;20024;-73
2023/04/06 12:58:29;;;;;;;5.50;3.50;;;9.10;99.90;;;;;;5069208;28;20040;-72
2023/04/06 13:00:55;;;;;;;3.33;2.60;;;9.20;99.90;;;;;;5055407;28;20017;-72
2023/04/06 13:03:22;;;;;;;4.15;2.97;;;9.20;99.90;;;;;;5073471;28;20500;-72